Portada
METAR-TAF:

METAR-TAF

Aeroports :

Aeroport d'Hèlsinki-Vantaa

Hèlsinki, Finlàndia

latitud: 60-19N, longitud: 024-58E, altitud: 51 m

Observació

L'informe es va fer fa 13 minuts, a les 13:20 UTC
Vent 8 kt del Sud, variant entre Sud-Est i Sud/Sud-Oest
Temperatura 24°C
Humitat 29%
Pressió 1028 hPa
Visibilitat 10 km o més
sense núvols per sota de 1500 mi sense presència de cumulonimbus.

METAR: EFHK 261320Z 17008KT 130V210 CAVOK 24/05 Q1028 NOSIG

Hora: 16:33 (13:33 UTC)

Pronòstic

L'informe es va fer fa 2 hores i 8 minuts, a les 11:25 UTC
Pronòstic vàlid del 26 a les 12 UTC al 27 a les 12 UTC
Vent 5 kt del Sud
Visibilitat 10 km o més
sense núvols per sota de 1500 mi sense presència de cumulonimbus.
Evolucionant progressivament
l' 27 a les 04 UTC al 27 a les 06 UTC
Vent 10 kt del Nord

TAF: EFHK 261125Z 2612/2712 18005KT CAVOK BECMG 2704/2706 01010KT

Observacions i pronòstics meteorològics de més de 4000 aeroports (METAR i TAF).

Les estacions disponibles són els punts grocs i vermells al mapa.

Posi el ratolí al punt desitjat per veure el nom de l'estació.

Feu clic per veure les observacions i els pronòstics meteorològics.

Per canviar el mapa: feu clic els botons verds amb una creu de color negre per apropar; al botó verd amb un guió per allunyar la imatge; o en les fletxes verdes per a mapes adjacents.


METAR-TAF: